Amherst, ME

1:36 PM EDT on April 19, 2015 (GMT -0400)
Springy Pond | | Change Station
CLOSE
Current Station
Personal Weather Station
Location: Otis, ME
Elevation: 300 ft
Nearby Weather Stations

Elev 300 ft 44.76 °N, 68.49 °W | Updated 4 minutes ago

Mostly Cloudy
Mostly Cloudy
48.7 °F
Feels Like 46 °F
N
6.6
Wind Variable Wind from NNE
Gusts 8.1 mph

Today
High -- | Low -- °F
--% Chance of Precip.
Yesterday
High -- | Low -- °F
Precip. -- in
5:42 AM 7:23 PM
New Moon, 1% visible
Pressure 30.23 in
Visibility 10.0 miles
Clouds Mostly Cloudy 5500 ft
Windchill 46 °F
Dew Point 19 °F
Humidity 31%
Rainfall 0.00 in
Snow Depth Not available.
UV 5 out of 12
Pollen 7.30 out of 12
Air Quality Not available.
Flu Activity Regional
METAR KBGR 191653Z 32006KT 10SM BKN055 11/M03 A3023 RMK AO2 SLP235 T01061033

More Conditions Fewer Conditions

Pressure 30.23 in
Visibility 10.0 miles
Clouds Mostly Cloudy 5500 ft
Windchill 46 °F
Dew Point 19 °F
Humidity 31%
Rainfall 0.00 in
Snow Depth Not available.
UV 5 out of 12
Pollen 7.30 out of 12
Air Quality Not available.
Flu Activity Regional
METAR KBGR 191653Z 32006KT 10SM BKN055 11/M03 A3023 RMK AO2 SLP235 T01061033

More Conditions Fewer Conditions

10-Day Weather Forecast

Almanac

Astronomy

Apr. 19, 2015 Rise Set
Actual Time
Civil Twilight
Nautical Twilight
Astronomical Twilight
Moon
Length of Visible Light
Length of Day
Tomorrow will be .
, % of the Moon is Illuminated

Today's Extremes

State Highs State Lows

Community

WunderPhotos

Upload Photos

1,814,873 photos uploaded!

WunderBlogs® & News

Nearby

Air Quality

  Air Quality AQ Index Pollutant
Not available.

Snow Depth

Station Depth Elevation

Earthquake Activity

City Distance Mag. Time & Date
Minimum magnitude displayed is 2.5.

Coastal Water Temperatures

Place Temperature

Stations

Nearby Weather Stations

Station Location Temp. Windchill Dew Point Humidity Wind Precip. Elev Updated Type